Time;durP1;ratioP1;P1;durP2;ratioP2;P2;SDS_P1;SDS_P2;PMS_P1;PMS_P2;Temp;Humidity;BMP_temperature;BMP_pressure;BME280_temperature;BME280_humidity;BME280_pressure;Samples;Min_cycle;Max_cycle;Signal;HPM_P1;HPM_P2
2022/03/18 00:02:24;;;;;;;20.92;16.08;;;;;;;14.97;52.93;99792.16;4915158;29;20060;-48
2022/03/18 00:04:52;;;;;;;20.45;17.33;;;;;;;15.08;52.97;99793.38;4915191;29;20036;-49
2022/03/18 00:07:20;;;;;;;25.02;18.00;;;;;;;15.11;52.80;99796.44;4913872;29;20062;-49
2022/03/18 00:09:50;;;;;;;28.95;18.13;;;;;;;15.26;52.36;99792.78;4915124;29;20024;-50
2022/03/18 00:12:16;;;;;;;27.90;19.27;;;;;;;15.22;52.24;99795.00;4915383;29;20375;-50
2022/03/18 00:14:43;;;;;;;26.17;17.45;;;;;;;15.09;52.59;99789.69;4915099;29;20024;-49
2022/03/18 00:17:10;;;;;;;25.38;17.45;;;;;;;15.09;52.34;99794.97;4918306;29;20458;-49
2022/03/18 00:19:38;;;;;;;21.90;16.50;;;;;;;15.09;52.64;99795.81;4917315;29;20122;-49
2022/03/18 00:22:05;;;;;;;23.25;17.67;;;;;;;15.09;52.63;99797.63;4918463;29;20512;-48
2022/03/18 00:24:32;;;;;;;22.80;17.52;;;;;;;15.14;52.34;99797.84;4917115;29;20035;-48
2022/03/18 00:27:03;;;;;;;27.30;19.58;;;;;;;15.19;52.06;99790.09;4918316;29;20028;-49
2022/03/18 00:29:31;;;;;;;21.40;18.15;;;;;;;15.14;52.55;99793.38;4918369;29;20051;-49
2022/03/18 00:31:57;;;;;;;20.67;16.45;;;;;;;15.50;51.93;99797.44;4918259;29;20466;-49
2022/03/18 00:34:23;;;;;;;23.02;16.55;;;;;;;15.51;51.61;99790.31;4917042;29;20032;-49
2022/03/18 00:36:49;;;;;;;21.33;16.85;;;;;;;15.40;51.58;99786.44;4918207;29;20020;-49
2022/03/18 00:39:14;;;;;;;23.17;18.80;;;;;;;15.35;51.65;99792.38;4916882;29;20036;-49
2022/03/18 00:41:41;;;;;;;25.23;17.65;;;;;;;15.24;52.00;99789.50;4916746;29;20384;-49
2022/03/18 00:44:07;;;;;;;27.80;18.38;;;;;;;15.29;51.97;99789.69;4918141;29;20410;-49
2022/03/18 00:46:33;;;;;;;28.35;19.67;;;;;;;15.17;52.05;99790.31;4918023;29;20028;-50
2022/03/18 00:54:45;;;;;;;21.25;16.80;;;;;;;15.08;52.23;99793.38;4896779;29;20036;-49
2022/03/18 00:57:12;;;;;;;26.00;18.92;;;;;;;15.06;52.41;99790.13;4896849;29;20043;-50
2022/03/18 00:59:38;;;;;;;21.88;17.88;;;;;;;15.21;52.42;99789.91;4896795;29;20028;-50
2022/03/18 01:02:05;;;;;;;30.00;20.75;;;;;;;15.21;52.16;99785.44;4896588;29;20063;-50
2022/03/18 01:04:30;;;;;;;30.95;18.35;;;;;;;14.99;52.46;99784.81;4896777;29;20098;-49
2022/03/18 01:06:58;;;;;;;25.38;18.40;;;;;;;14.87;52.96;99781.97;4896658;29;20586;-49
2022/03/18 01:09:25;;;;;;;31.20;18.88;;;;;;;14.92;53.13;99776.88;4896502;29;20132;-49
2022/03/18 01:11:52;;;;;;;32.30;18.05;;;;;;;15.18;52.54;99773.44;4880848;29;20415;-50
2022/03/18 01:14:19;;;;;;;24.50;17.83;;;;;;;15.40;51.99;99770.59;4896564;29;20115;-49
2022/03/18 01:16:45;;;;;;;23.30;19.08;;;;;;;15.41;51.82;99771.38;4896192;29;20532;-50
2022/03/18 01:19:12;;;;;;;28.67;19.73;;;;;;;15.31;51.99;99769.16;4896499;29;20033;-49
2022/03/18 01:21:38;;;;;;;29.23;18.70;;;;;;;15.40;51.96;99770.59;4896287;29;20056;-49
2022/03/18 01:24:05;;;;;;;23.23;17.55;;;;;;;15.38;51.82;99764.69;4896404;29;20036;-50
2022/03/18 01:26:31;;;;;;;22.17;17.60;;;;;;;15.61;51.37;99764.22;4895383;29;20037;-49
2022/03/18 01:28:58;;;;;;;25.55;17.27;;;;;;;15.63;51.25;99766.69;4897428;29;20236;-49
2022/03/18 01:31:25;;;;;;;24.23;18.73;;;;;;;15.61;51.12;99763.41;4898401;29;20039;-49
2022/03/18 01:33:51;;;;;;;26.23;17.73;;;;;;;15.40;51.39;99760.00;4898320;29;20056;-49
2022/03/18 01:36:17;;;;;;;30.02;19.05;;;;;;;15.36;51.79;99774.66;4898271;29;20443;-50
2022/03/18 01:38:42;;;;;;;28.88;19.10;;;;;;;15.31;51.75;99761.22;4898251;29;20067;-49
2022/03/18 01:41:08;;;;;;;25.80;20.63;;;;;;;15.26;51.79;99763.69;4898099;29;20052;-48
2022/03/18 01:43:44;;;;;;;27.48;18.75;;;;;;;15.08;52.28;99746.59;4898171;29;20025;-50
2022/03/18 01:46:09;;;;;;;31.38;18.27;;;;;;;15.34;52.04;99752.88;4898174;29;20028;-49
2022/03/18 01:48:35;;;;;;;28.15;19.10;;;;;;;15.62;51.19;99755.28;4898068;29;20456;-50
2022/03/18 01:51:04;;;;;;;27.73;21.05;;;;;;;15.69;50.60;99748.13;4898028;29;20032;-50
2022/03/18 01:53:30;;;;;;;31.48;21.25;;;;;;;15.69;50.67;99756.06;4897970;29;20102;-49
2022/03/18 01:55:56;;;;;;;33.50;23.25;;;;;;;15.49;50.76;99752.66;4897930;29;20039;-49
2022/03/18 01:58:23;;;;;;;25.48;18.95;;;;;;;15.46;51.31;99747.78;4897899;29;20047;-49
2022/03/18 02:00:49;;;;;;;30.48;19.75;;;;;;;15.44;50.82;99753.28;4897839;29;20025;-49
2022/03/18 02:03:14;;;;;;;25.48;18.75;;;;;;;15.27;51.38;99747.63;4896448;29;20088;-49
2022/03/18 02:05:41;;;;;;;29.60;19.65;;;;;;;15.32;51.40;99753.09;4897734;29;20035;-49
2022/03/18 02:08:08;;;;;;;28.25;21.98;;;;;;;15.12;51.57;99749.63;4897744;29;20059;-49
2022/03/18 02:10:37;;;;;;;24.95;19.90;;;;;;;14.97;52.15;99755.13;4897687;29;20558;-49
2022/03/18 02:13:04;;;;;;;27.15;20.13;;;;;;;14.96;51.96;99751.66;4897633;29;20044;-49
2022/03/18 02:15:29;;;;;;;25.45;19.02;;;;;;;14.90;52.33;99757.75;4897626;29;20028;-50
2022/03/18 02:17:55;;;;;;;32.00;19.98;;;;;;;14.96;52.24;99754.31;4907913;29;20414;-49
2022/03/18 02:20:21;;;;;;;26.42;20.63;;;;;;;14.75;52.09;99749.22;4916651;29;20156;-49
2022/03/18 02:22:47;;;;;;;31.20;20.60;;;;;;;14.51;52.96;99746.09;4916287;29;20124;-49
2022/03/18 02:25:13;;;;;;;27.50;20.63;;;;;;;14.34;53.34;99750.09;4914999;29;20550;-50
2022/03/18 02:27:40;;;;;;;26.83;19.65;;;;;;;14.30;53.59;99749.66;4916263;29;20414;-48
2022/03/18 02:30:08;;;;;;;28.67;20.77;;;;;;;14.40;53.50;99749.28;4916234;29;20107;-49
2022/03/18 02:32:34;;;;;;;27.27;19.17;;;;;;;14.40;53.72;99751.94;4916210;29;20035;-48
2022/03/18 02:35:01;;;;;;;31.83;22.52;;;;;;;14.30;53.23;99752.31;4916151;29;20107;-50
2022/03/18 02:37:27;;;;;;;23.42;19.58;;;;;;;14.15;54.01;99752.47;4916111;29;20107;-49
2022/03/18 02:39:54;;;;;;;29.02;20.60;;;;;;;14.25;54.12;99756.56;4914631;29;20108;-50
2022/03/18 02:42:20;;;;;;;30.98;22.10;;;;;;;14.32;53.89;99749.47;4915943;29;20032;-50
2022/03/18 02:44:46;;;;;;;26.77;21.60;;;;;;;14.32;53.70;99749.47;4915962;29;20032;-49
2022/03/18 02:47:11;;;;;;;28.98;19.95;;;;;;;14.36;53.44;99748.88;4914643;29;20522;-49
2022/03/18 02:49:37;;;;;;;28.60;20.00;;;;;;;14.33;53.69;99749.28;4915888;29;20032;-49
2022/03/18 02:52:03;;;;;;;23.88;21.30;;;;;;;14.25;54.11;99748.66;4914588;29;20036;-49
2022/03/18 02:54:29;;;;;;;29.00;20.67;;;;;;;14.30;53.92;99740.94;4915888;29;20541;-49
2022/03/18 02:56:54;;;;;;;28.10;20.25;;;;;;;14.42;53.46;99747.28;4915805;29;20032;-49
2022/03/18 02:59:20;;;;;;;26.95;21.50;;;;;;;14.36;53.62;99754.16;4915794;29;20075;-50
2022/03/18 03:01:46;;;;;;;26.10;20.05;;;;;;;14.11;54.22;99748.59;4915697;29;20027;-49
2022/03/18 03:04:13;;;;;;;24.27;19.20;;;;;;;14.08;54.37;99742.88;4914438;29;20075;-48
2022/03/18 03:09:23;;;;;;;26.40;20.77;;;;;;;13.96;54.69;99754.03;4915777;29;20047;-49
2022/03/18 03:11:49;;;;;;;25.10;19.88;;;;;;;13.95;54.96;99747.09;4915654;29;20028;-49
2022/03/18 03:14:15;;;;;;;25.58;19.88;;;;;;;14.14;54.71;99750.81;4914428;29;20039;-49
2022/03/18 03:16:42;;;;;;;26.67;19.48;;;;;;;14.24;54.15;99753.09;4914098;29;20032;-49
2022/03/18 03:19:08;;;;;;;28.27;20.27;;;;;;;14.35;54.10;99755.19;4915674;29;20028;-49
2022/03/18 03:21:34;;;;;;;31.70;20.27;;;;;;;14.38;53.77;99753.97;4915544;29;20024;-49
2022/03/18 03:24:01;;;;;;;26.45;20.40;;;;;;;14.45;53.78;99761.94;4914390;29;20107;-48
2022/03/18 03:26:27;;;;;;;24.42;19.95;;;;;;;14.30;53.48;99756.78;4915570;29;20555;-50
2022/03/18 03:28:53;;;;;;;21.95;18.20;;;;;;;14.22;54.20;99763.03;4914283;29;20029;-49
2022/03/18 03:31:19;;;;;;;25.30;20.27;;;;;;;14.53;53.83;99748.53;4915441;29;20092;-49
2022/03/18 03:33:45;;;;;;;23.88;17.77;;;;;;;14.72;53.30;99750.41;4914229;29;20028;-49
2022/03/18 03:36:11;;;;;;;24.70;19.55;;;;;;;14.72;52.85;99753.06;4915436;29;20029;-50
2022/03/18 03:38:37;;;;;;;25.17;20.38;;;;;;;14.82;52.72;99755.31;4914208;29;20024;-49
2022/03/18 03:41:03;;;;;;;26.27;18.85;;;;;;;14.80;52.79;99757.34;4915970;29;20035;-49
2022/03/18 03:43:29;;;;;;;28.17;19.67;;;;;;;14.58;52.74;99752.22;4914098;29;20032;-50
2022/03/18 03:45:55;;;;;;;26.65;18.77;;;;;;;14.61;53.10;99763.38;4914051;29;20075;-48
2022/03/18 03:48:20;;;;;;;24.77;18.48;;;;;;;14.62;53.03;99763.19;4915312;29;20024;-49
2022/03/18 03:50:46;;;;;;;25.73;19.23;;;;;;;14.58;53.19;99757.50;4917025;29;20521;-48
2022/03/18 03:53:12;;;;;;;27.27;18.85;;;;;;;14.49;53.09;99758.69;4919037;29;20032;-48
2022/03/18 03:55:39;;;;;;;24.23;18.63;;;;;;;14.25;53.51;99767.94;4918942;29;20618;-49
2022/03/18 03:58:06;;;;;;;26.08;18.90;;;;;;;14.09;53.74;99768.28;4918982;29;20031;-50
2022/03/18 04:00:32;;;;;;;20.98;18.05;;;;;;;14.08;54.20;99767.44;4918841;29;20032;-50
2022/03/18 04:02:58;;;;;;;22.80;19.35;;;;;;;14.25;53.66;99778.50;4917497;29;20036;-49
2022/03/18 04:05:24;;;;;;;24.73;19.05;;;;;;;14.31;53.81;99772.44;4917511;29;20032;-48
2022/03/18 04:07:49;;;;;;;24.63;18.23;;;;;;;14.44;53.23;99768.22;4918762;29;20047;-48
2022/03/18 04:10:15;;;;;;;23.23;17.88;;;;;;;14.52;52.83;99771.47;4917447;29;20025;-49
2022/03/18 04:12:43;;;;;;;28.02;18.48;;;;;;;14.61;53.05;99784.53;4918673;29;20028;-49
2022/03/18 04:15:09;;;;;;;23.67;18.48;;;;;;;14.60;52.52;99782.91;4918680;29;20115;-49
2022/03/18 04:17:46;;;;;;;22.38;18.80;;;;;;;14.50;52.87;99786.72;4918385;29;20503;-49
2022/03/18 04:20:15;;;;;;;24.67;19.23;;;;;;;14.39;53.04;99784.66;4918623;29;20035;-49
2022/03/18 04:22:41;;;;;;;22.95;17.98;;;;;;;14.35;53.31;99792.16;4917154;29;20024;-49
2022/03/18 04:25:08;;;;;;;26.50;18.85;;;;;;;14.46;53.35;99796.03;4918421;29;20063;-49
2022/03/18 04:27:35;;;;;;;22.27;18.42;;;;;;;14.48;52.75;99793.22;4918390;29;20414;-48
2022/03/18 04:30:02;;;;;;;26.50;17.83;;;;;;;14.37;53.22;99792.78;4918395;29;20051;-49
2022/03/18 04:32:28;;;;;;;27.42;18.58;;;;;;;14.06;53.30;99789.78;4917032;29;20483;-49
2022/03/18 04:34:53;;;;;;;28.70;20.08;;;;;;;13.77;54.30;99789.84;4918337;29;20082;-49
2022/03/18 04:37:19;;;;;;;23.40;18.00;;;;;;;13.89;54.49;99794.56;4918256;29;20028;-50
2022/03/18 04:39:45;;;;;;;27.00;18.58;;;;;;;14.08;53.68;99790.41;4918224;29;20032;-49
2022/03/18 04:42:10;;;;;;;23.58;18.30;;;;;;;14.10;53.72;99791.03;4916755;29;20059;-49
2022/03/18 04:44:36;;;;;;;24.42;19.98;;;;;;;14.08;53.66;99796.50;4916865;29;20036;-49
2022/03/18 04:47:02;;;;;;;25.65;18.55;;;;;;;14.15;53.46;99794.72;4918119;29;20060;-49
2022/03/18 04:49:27;;;;;;;23.17;18.50;;;;;;;14.23;53.14;99798.22;4916700;29;20047;-50
2022/03/18 04:51:53;;;;;;;24.77;19.83;;;;;;;14.26;53.08;99795.97;4918019;29;20107;-49
2022/03/18 04:54:19;;;;;;;29.25;20.70;;;;;;;14.19;53.26;99801.22;4916640;29;20379;-48
2022/03/18 04:59:29;;;;;;;25.67;18.80;;;;;;;14.18;53.22;99809.34;4917943;29;20158;-50
2022/03/18 05:01:54;;;;;;;26.23;19.38;;;;;;;14.15;53.33;99802.63;4916344;29;20051;-49
2022/03/18 05:04:20;;;;;;;26.70;20.27;;;;;;;14.14;52.88;99803.63;4916477;29;20028;-49
2022/03/18 05:06:46;;;;;;;25.92;19.58;;;;;;;14.05;53.25;99806.66;4917745;29;20047;-49
2022/03/18 05:09:13;;;;;;;27.50;20.23;;;;;;;14.08;53.51;99814.16;4917647;29;20036;-49
2022/03/18 05:11:39;;;;;;;26.73;19.55;;;;;;;14.02;53.23;99815.75;4916398;29;20020;-49
2022/03/18 05:14:04;;;;;;;24.10;19.05;;;;;;;14.06;53.38;99817.00;4917620;29;20035;-49
2022/03/18 05:16:31;;;;;;;26.77;20.13;;;;;;;14.11;53.12;99813.78;4917506;29;20519;-49
2022/03/18 05:18:57;;;;;;;27.50;21.02;;;;;;;14.07;53.01;99821.28;4916067;29;20047;-49
2022/03/18 05:21:23;;;;;;;28.40;20.10;;;;;;;14.03;53.08;99827.13;4917351;29;20038;-50
2022/03/18 05:23:49;;;;;;;28.52;21.33;;;;;;;13.98;52.91;99827.69;4916098;29;20032;-50
2022/03/18 05:26:14;;;;;;;35.03;20.80;;;;;;;13.89;53.22;99826.25;4917332;29;20403;-49
2022/03/18 05:28:42;;;;;;;30.38;19.80;;;;;;;13.91;53.49;99819.75;4917365;29;20115;-49
2022/03/18 05:31:08;;;;;;;28.23;21.00;;;;;;;13.87;53.08;99823.78;4917236;29;20028;-49
2022/03/18 05:33:34;;;;;;;34.17;22.02;;;;;;;13.86;53.34;99827.44;4917236;29;20039;-49
2022/03/18 05:36:00;;;;;;;31.77;20.60;;;;;;;13.90;53.46;99823.38;4917207;29;20036;-49
2022/03/18 05:38:27;;;;;;;29.75;20.67;;;;;;;14.03;53.45;99829.78;4917109;29;20513;-50
2022/03/18 05:40:53;;;;;;;29.20;22.33;;;;;;;14.10;53.17;99826.16;4915798;29;20032;-49
2022/03/18 05:43:19;;;;;;;30.25;21.25;;;;;;;14.11;52.77;99830.44;4917001;29;20483;-49
2022/03/18 05:45:45;;;;;;;29.58;22.02;;;;;;;13.99;52.93;99838.06;4915730;29;20029;-50
2022/03/18 05:48:12;;;;;;;29.77;20.23;;;;;;;14.02;53.08;99833.41;4916915;29;20055;-49
2022/03/18 05:50:38;;;;;;;34.58;22.60;;;;;;;14.13;53.22;99843.44;4916976;29;20024;-50
2022/03/18 05:53:04;;;;;;;30.23;21.20;;;;;;;14.26;52.49;99840.03;4915607;29;20090;-50
2022/03/18 05:58:21;;;;;;;29.63;21.45;;;;;;;14.17;52.44;99842.84;4905928;29;20526;-50
2022/03/18 06:00:47;;;;;;;24.70;19.85;;;;;;;14.05;52.84;99846.25;4916755;29;20059;-49
2022/03/18 06:03:13;;;;;;;29.52;21.58;;;;;;;13.92;52.80;99846.94;4915356;29;20027;-48
2022/03/18 06:05:42;;;;;;;25.63;19.45;;;;;;;13.86;53.07;99834.53;4916692;29;20100;-49
2022/03/18 06:13:40;;;;;;;28.75;21.95;;;;;;;14.02;53.26;99841.34;4916348;29;20084;-49
2022/03/18 06:16:06;;;;;;;26.02;21.15;;;;;;;13.98;52.96;99844.38;4917034;29;20028;-49
2022/03/18 06:18:32;;;;;;;29.80;20.77;;;;;;;13.85;53.16;99851.38;4915006;29;20569;-50
2022/03/18 06:20:59;;;;;;;22.33;19.75;;;;;;;13.88;53.52;99845.72;4915070;29;20032;-49
2022/03/18 06:23:26;;;;;;;26.33;20.60;;;;;;;13.91;53.15;99845.34;4916342;29;20028;-49
2022/03/18 06:25:51;;;;;;;24.27;20.15;;;;;;;13.84;53.16;99852.38;4916303;29;20450;-49
2022/03/18 06:28:17;;;;;;;28.08;21.73;;;;;;;13.78;53.14;99856.59;4914988;29;20040;-49
2022/03/18 06:30:44;;;;;;;26.10;19.73;;;;;;;13.78;53.17;99849.53;4916283;29;20520;-49
2022/03/18 06:33:10;;;;;;;29.70;20.10;;;;;;;13.79;53.11;99852.97;4916184;29;20103;-49
2022/03/18 06:35:36;;;;;;;25.98;19.75;;;;;;;13.77;53.49;99853.16;4914869;29;20499;-49
2022/03/18 06:38:02;;;;;;;30.67;21.02;;;;;;;13.84;53.08;99858.47;4915036;29;20095;-50
2022/03/18 06:40:28;;;;;;;26.60;20.77;;;;;;;13.86;53.40;99859.09;4916076;29;20028;-50
2022/03/18 06:42:53;;;;;;;24.92;20.15;;;;;;;13.92;53.28;99858.34;4914702;29;20115;-49
2022/03/18 06:45:21;;;;;;;37.53;19.63;;;;;;;13.95;52.97;99867.69;4916020;29;20028;-49
2022/03/18 06:47:47;;;;;;;36.28;20.42;;;;;;;13.97;52.79;99857.75;4914696;29;20091;-49
2022/03/18 06:50:13;;;;;;;30.38;20.88;;;;;;;13.98;52.74;99859.38;4914626;29;20032;-49
2022/03/18 06:52:39;;;;;;;33.45;18.63;;;;;;;13.96;52.85;99862.22;4914627;29;20111;-49
2022/03/18 06:55:06;;;;;;;32.45;20.20;;;;;;;14.08;52.65;99865.13;4915883;29;20107;-49
2022/03/18 06:57:32;;;;;;;44.00;30.27;;;;;;;14.14;52.38;99869.63;4914509;29;20032;-49
2022/03/18 06:59:57;;;;;;;23.58;20.48;;;;;;;14.13;52.40;99875.13;4915769;29;20028;-50
2022/03/18 07:02:24;;;;;;;36.58;23.33;;;;;;;14.10;52.58;99873.66;4914430;29;20028;-49
2022/03/18 07:04:50;;;;;;;41.65;23.55;;;;;;;14.03;52.56;99877.28;4915766;29;20024;-49
2022/03/18 07:07:16;;;;;;;25.33;20.08;;;;;;;13.95;52.68;99876.41;4914408;29;20403;-50
2022/03/18 07:09:41;;;;;;;26.70;18.40;;;;;;;13.94;52.77;99874.81;4914398;29;20087;-49
2022/03/18 07:12:08;;;;;;;25.63;20.45;;;;;;;13.98;52.31;99875.22;4915657;29;20191;-49
2022/03/18 07:14:33;;;;;;;31.73;18.65;;;;;;;13.86;52.51;99879.41;4915663;29;20506;-50
2022/03/18 07:19:43;;;;;;;26.00;18.45;;;;;;;13.94;52.57;99879.25;4915668;29;20525;-49
2022/03/18 07:22:09;;;;;;;23.02;18.80;;;;;;;14.06;52.34;99882.16;4914186;29;20024;-50
2022/03/18 07:24:34;;;;;;;23.17;18.80;;;;;;;14.13;52.00;99881.22;4914296;29;20187;-50
2022/03/18 07:27:00;;;;;;;25.95;17.55;;;;;;;14.20;52.08;99881.25;4919322;29;20450;-49
2022/03/18 07:29:26;;;;;;;29.27;18.35;;;;;;;14.33;51.90;99880.50;4918228;29;20031;-49
2022/03/18 07:31:54;;;;;;;26.40;19.95;;;;;;;14.09;51.47;99889.72;4918071;29;20043;-49
2022/03/18 07:34:23;;;;;;;28.55;18.13;;;;;;;13.74;52.46;99884.38;4919358;29;20032;-49
2022/03/18 07:36:50;;;;;;;28.48;18.35;;;;;;;13.76;52.90;99891.13;4917996;29;20030;-50
2022/03/18 07:39:16;;;;;;;25.27;17.75;;;;;;;13.77;52.90;99889.28;4919284;29;20411;-50
2022/03/18 07:41:42;;;;;;;26.17;17.35;;;;;;;13.87;52.77;99895.03;4933715;29;20494;-49
2022/03/18 07:44:08;;;;;;;23.23;17.70;;;;;;;14.05;52.29;99891.91;4917906;29;20032;-49
2022/03/18 07:46:34;;;;;;;27.30;19.13;;;;;;;13.99;52.15;99892.69;4919172;29;20028;-49
2022/03/18 07:49:01;;;;;;;31.38;17.92;;;;;;;13.92;52.46;99892.66;4919162;29;20409;-49
2022/03/18 07:51:27;;;;;;;28.17;17.70;;;;;;;14.08;52.39;99894.16;4919092;29;20506;-49
2022/03/18 07:53:53;;;;;;;23.00;17.65;;;;;;;14.30;51.99;99892.25;4917718;29;20063;-50
2022/03/18 07:56:18;;;;;;;30.38;18.20;;;;;;;14.10;51.77;99896.63;4917747;29;20140;-49
2022/03/18 07:58:44;;;;;;;27.80;16.73;;;;;;;14.31;52.17;99890.47;4919208;29;20032;-49
2022/03/18 08:01:10;;;;;;;26.20;17.05;;;;;;;14.45;51.52;99899.28;4918899;29;20032;-49
2022/03/18 08:03:36;;;;;;;27.75;18.25;;;;;;;14.26;51.40;99890.22;4918874;29;20043;-49
2022/03/18 08:06:03;;;;;;;21.20;16.30;;;;;;;14.04;52.06;99898.19;4918777;29;20031;-49
2022/03/18 08:08:28;;;;;;;23.02;17.17;;;;;;;13.88;52.38;99891.38;4917501;29;20028;-49
2022/03/18 08:10:55;;;;;;;35.35;18.60;;;;;;;13.99;52.34;99897.97;4918757;29;20076;-50
2022/03/18 08:13:21;;;;;;;24.77;16.48;;;;;;;14.11;52.04;99903.53;4918811;29;20112;-49
2022/03/18 08:15:47;;;;;;;24.75;16.73;;;;;;;14.20;51.93;99902.34;4917408;29;20046;-49
2022/03/18 08:18:13;;;;;;;25.85;16.08;;;;;;;14.35;51.87;99904.91;4917159;29;20040;-49
2022/03/18 08:20:40;;;;;;;27.25;17.30;;;;;;;14.51;51.49;99912.50;4917338;29;20024;-49
2022/03/18 08:23:11;;;;;;;24.20;16.48;;;;;;;14.60;51.06;99915.00;4918466;29;20099;-49
2022/03/18 08:25:37;;;;;;;29.25;14.48;;;;;;;14.55;50.67;99916.38;4917203;29;20032;-50
2022/03/18 08:28:05;;;;;;;22.73;16.25;;;;;;;14.64;50.88;99911.78;4917198;29;20040;-49
2022/03/18 08:30:31;;;;;;;38.35;17.92;;;;;;;14.67;51.09;99910.56;4917077;29;20056;-49
2022/03/18 08:32:57;;;;;;;25.95;16.98;;;;;;;14.58;50.79;99916.00;4918345;29;20051;-50
2022/03/18 08:35:23;;;;;;;23.45;16.58;;;;;;;14.51;50.83;99922.25;4916971;29;20033;-49
2022/03/18 08:37:58;;;;;;;22.02;16.02;;;;;;;14.46;50.93;99920.19;4916640;29;20589;-50
2022/03/18 08:40:32;;;;;;;21.92;16.73;;;;;;;14.41;51.49;99919.13;4916988;29;20579;-49
2022/03/18 08:42:59;;;;;;;21.70;15.63;;;;;;;14.51;51.15;99920.44;4916810;29;20471;-49
2022/03/18 08:45:27;;;;;;;25.58;15.02;;;;;;;14.46;51.35;99924.66;4916832;29;20059;-49
2022/03/18 08:47:54;;;;;;;26.25;16.63;;;;;;;14.42;51.50;99928.69;4916829;29;20024;-50
2022/03/18 08:50:21;;;;;;;25.50;16.15;;;;;;;14.22;51.30;99932.03;4916737;29;20470;-49
2022/03/18 08:52:49;;;;;;;21.42;16.50;;;;;;;14.15;51.81;99932.00;4916698;29;20024;-50
2022/03/18 08:55:16;;;;;;;24.73;15.20;;;;;;;14.16;52.43;99938.06;4917942;29;20406;-49
2022/03/18 08:57:42;;;;;;;32.65;19.15;;;;;;;14.28;51.54;99939.16;4916634;29;20143;-49
2022/03/18 09:00:11;;;;;;;19.35;15.40;;;;;;;14.09;52.20;99938.03;4917896;29;20518;-49
2022/03/18 09:02:39;;;;;;;21.30;16.55;;;;;;;14.27;51.95;99944.66;4917789;29;20042;-49
2022/03/18 09:05:07;;;;;;;26.65;15.50;;;;;;;14.21;51.86;99937.53;4916425;29;20024;-50
2022/03/18 09:07:34;;;;;;;22.35;14.38;;;;;;;14.45;52.12;99944.97;4917785;29;20040;-49
2022/03/18 09:10:00;;;;;;;21.85;15.60;;;;;;;14.80;51.14;99941.53;4917690;29;20076;-50
2022/03/18 09:12:27;;;;;;;25.70;16.80;;;;;;;14.78;50.74;99947.81;4916410;29;20124;-49
2022/03/18 09:14:53;;;;;;;27.73;15.27;;;;;;;14.68;51.41;99950.00;4916340;29;20028;-50
2022/03/18 09:17:19;;;;;;;34.47;16.90;;;;;;;14.76;51.43;99954.31;4916011;29;20135;-49
2022/03/18 09:19:45;;;;;;;29.55;15.82;;;;;;;14.85;50.69;99950.50;4916236;29;20035;-50
2022/03/18 09:22:13;;;;;;;27.10;14.75;;;;;;;14.98;50.78;99958.47;4916165;29;20016;-50
2022/03/18 09:24:39;;;;;;;30.40;17.40;;;;;;;15.02;50.47;99960.72;4917422;29;20055;-49
2022/03/18 09:27:05;;;;;;;31.45;16.10;;;;;;;14.91;50.59;99954.16;4916082;29;20458;-49
2022/03/18 09:29:31;;;;;;;24.10;15.93;;;;;;;14.86;50.86;99956.59;4916097;29;20451;-50
2022/03/18 09:31:57;;;;;;;25.15;16.08;;;;;;;14.84;50.85;99946.22;4916004;29;20028;-50
2022/03/18 09:34:26;;;;;;;23.75;15.70;;;;;;;14.80;50.60;99955.53;4916008;29;20095;-50
2022/03/18 09:36:56;;;;;;;25.17;15.93;;;;;;;14.76;50.98;99954.31;4917233;29;20039;-50
2022/03/18 09:39:24;;;;;;;26.88;15.98;;;;;;;14.75;50.87;99952.69;4917200;29;20024;-48
2022/03/18 09:41:51;;;;;;;28.80;15.35;;;;;;;14.61;50.94;99964.19;4915705;29;20119;-49
2022/03/18 09:44:17;;;;;;;22.85;14.80;;;;;;;14.48;51.08;99975.47;4915841;29;20039;-50
2022/03/18 09:46:47;;;;;;;24.08;14.20;;;;;;;14.66;51.24;99973.16;4915698;29;20051;-49
2022/03/18 09:49:19;;;;;;;33.47;16.02;;;;;;;14.83;50.95;99967.53;4916204;29;20055;-50
2022/03/18 09:51:47;;;;;;;25.20;15.48;;;;;;;15.04;50.75;99974.56;4915619;29;20156;-50
2022/03/18 09:54:14;;;;;;;26.67;14.57;;;;;;;15.19;50.26;99964.63;4915675;29;20032;-49
2022/03/18 09:56:47;;;;;;;39.13;16.50;;;;;;;15.43;49.88;99965.09;4915587;29;20410;-49
2022/03/18 09:59:14;;;;;;;29.30;15.57;;;;;;;15.58;49.57;99968.41;4915573;29;20038;-48
2022/03/18 10:01:41;;;;;;;22.90;15.38;;;;;;;15.53;49.31;99968.19;4915403;29;20024;-49
2022/03/18 10:04:11;;;;;;;21.92;15.25;;;;;;;15.41;49.51;99969.78;4916732;29;20032;-50
2022/03/18 10:06:40;;;;;;;21.55;14.73;;;;;;;15.43;49.64;99960.63;4916981;29;20028;-50
2022/03/18 10:09:06;;;;;;;30.33;15.68;;;;;;;15.71;49.15;99963.09;4916678;29;20490;-49
2022/03/18 10:11:36;;;;;;;28.63;14.65;;;;;;;15.83;48.93;99960.72;4916575;29;20067;-50
2022/03/18 10:14:07;;;;;;;30.58;14.23;;;;;;;16.01;48.47;99962.75;4916601;29;20159;-50
2022/03/18 10:16:46;;;;;;;21.80;15.20;;;;;;;15.99;48.39;99962.16;4915174;29;20087;-50
2022/03/18 10:19:17;;;;;;;22.35;15.50;;;;;;;16.06;48.15;99956.88;4916518;29;20096;-50
2022/03/18 10:21:54;;;;;;;19.35;14.30;;;;;;;16.11;48.05;99963.16;4916374;29;20066;-49
2022/03/18 10:24:28;;;;;;;18.48;14.95;;;;;;;16.18;47.71;99963.97;4916460;29;20038;-50
2022/03/18 10:27:14;;;;;;;31.63;16.57;;;;;;;16.11;47.75;99979.03;4916324;29;20016;-49
2022/03/18 10:29:59;;;;;;;26.63;15.35;;;;;;;16.04;48.20;99982.75;4916276;29;20115;-49
2022/03/18 10:32:27;;;;;;;;;;;;;;;16.13;48.14;99970.91;4914990;29;20040;-49
2022/03/18 10:37:58;;;;;;;28.80;16.83;;;;;;;15.86;48.19;99980.69;4876430;29;20199;-49
2022/03/18 10:40:36;;;;;;;19.63;13.85;;;;;;;15.83;48.44;99976.59;4876430;29;20032;-49
2022/03/18 10:43:06;;;;;;;24.08;16.30;;;;;;;15.80;48.18;99970.91;4876188;29;20072;-49
2022/03/18 10:45:32;;;;;;;24.00;15.25;;;;;;;15.50;48.39;99977.34;4876380;29;20029;-49
2022/03/18 10:48:15;;;;;;;21.13;15.20;;;;;;;15.28;49.20;99976.69;4876202;29;20039;-49
2022/03/18 10:50:41;;;;;;;25.35;15.30;;;;;;;15.28;49.21;99983.81;4876295;29;20073;-48
2022/03/18 10:53:11;;;;;;;24.13;15.90;;;;;;;15.19;49.48;99980.50;4876149;29;20611;-49
2022/03/18 10:55:42;;;;;;;19.13;14.00;;;;;;;15.27;49.42;99982.16;4876097;29;20443;-49
2022/03/18 10:58:11;;;;;;;25.13;14.95;;;;;;;15.28;49.38;99981.16;4876159;29;20044;-49
2022/03/18 11:00:45;;;;;;;23.05;14.57;;;;;;;15.30;49.21;99981.78;4891378;29;20583;-49
2022/03/18 11:03:13;;;;;;;24.95;15.60;;;;;;;15.52;48.81;99977.97;4876060;29;20963;-48
2022/03/18 11:05:40;;;;;;;24.55;15.80;;;;;;;15.63;48.37;99979.19;4876001;29;20041;-49
2022/03/18 11:08:11;;;;;;;27.65;14.90;;;;;;;15.56;48.39;99971.25;4887021;29;20032;-49
2022/03/18 11:13:28;;;;;;;20.30;14.60;;;;;;;15.62;48.27;99980.22;4915766;29;20047;-48
2022/03/18 11:15:55;;;;;;;25.88;14.23;;;;;;;15.77;48.08;99985.34;4914323;29;20487;-48
2022/03/18 11:18:21;;;;;;;30.13;14.73;;;;;;;15.94;47.86;99988.44;4915385;29;20044;-49
2022/03/18 11:20:50;;;;;;;27.42;14.65;;;;;;;16.01;47.64;99983.94;4914285;29;20064;-50
2022/03/18 11:23:18;;;;;;;22.60;14.05;;;;;;;16.11;47.33;99984.34;4915614;29;20035;-49
2022/03/18 11:25:47;;;;;;;23.05;15.25;;;;;;;16.01;47.21;99978.63;4914246;29;20032;-49
2022/03/18 11:28:15;;;;;;;24.25;15.55;;;;;;;15.86;47.61;99980.69;4914292;29;20035;-49
2022/03/18 11:30:42;;;;;;;20.27;14.55;;;;;;;15.67;48.00;99987.53;4914270;29;20020;-49
2022/03/18 11:33:10;;;;;;;24.30;14.38;;;;;;;15.63;48.27;99981.84;4915557;29;20040;-49
2022/03/18 11:36:12;;;;;;;24.42;14.57;;;;;;;15.70;48.40;99985.31;4915465;29;20020;-50
2022/03/18 11:39:02;;;;;;;20.13;12.85;;;;;;;15.71;48.37;99984.28;4908792;29;20051;-49
2022/03/18 11:41:48;;;;;;;24.17;15.90;;;;;;;15.56;48.52;99986.31;4915439;29;20119;-49
2022/03/18 11:44:42;;;;;;;26.20;15.30;;;;;;;15.50;49.01;99982.63;4915487;29;20075;-49
2022/03/18 11:47:23;;;;;;;18.88;13.40;;;;;;;15.58;48.79;99974.50;4915426;29;20024;-49